sensor_id;sensor_type;location;lat;lon;timestamp;temperature;humidity
7167;DHT22;3625;51.762;14.320;2023-07-13T00:00:32;19.70;99.90
7167;DHT22;3625;51.762;14.320;2023-07-13T00:03:01;20.80;99.90
7167;DHT22;3625;51.762;14.320;2023-07-13T00:05:31;20.80;99.90
7167;DHT22;3625;51.762;14.320;2023-07-13T00:08:00;20.80;99.90
7167;DHT22;3625;51.762;14.320;2023-07-13T00:10:28;20.80;99.90
7167;DHT22;3625;51.762;14.320;2023-07-13T00:12:57;20.80;1.00
7167;DHT22;3625;51.762;14.320;2023-07-13T00:15:27;20.80;1.00
7167;DHT22;3625;51.762;14.320;2023-07-13T00:17:57;20.80;1.00
7167;DHT22;3625;51.762;14.320;2023-07-13T00:20:28;20.80;1.00
7167;DHT22;3625;51.762;14.320;2023-07-13T00:22:57;20.70;1.00
7167;DHT22;3625;51.762;14.320;2023-07-13T00:25:26;20.70;1.00
7167;DHT22;3625;51.762;14.320;2023-07-13T00:27:55;20.70;1.00
7167;DHT22;3625;51.762;14.320;2023-07-13T00:30:24;20.70;1.00
7167;DHT22;3625;51.762;14.320;2023-07-13T00:32:53;20.60;1.00
7167;DHT22;3625;51.762;14.320;2023-07-13T00:35:42;20.60;1.00
7167;DHT22;3625;51.762;14.320;2023-07-13T00:38:13;20.50;1.00
7167;DHT22;3625;51.762;14.320;2023-07-13T00:40:42;20.50;1.00
7167;DHT22;3625;51.762;14.320;2023-07-13T00:43:13;20.40;1.00
7167;DHT22;3625;51.762;14.320;2023-07-13T00:46:13;20.40;1.00
7167;DHT22;3625;51.762;14.320;2023-07-13T00:48:48;20.40;1.00
7167;DHT22;3625;51.762;14.320;2023-07-13T00:51:24;20.40;1.00
7167;DHT22;3625;51.762;14.320;2023-07-13T00:54:04;20.40;1.00
7167;DHT22;3625;51.762;14.320;2023-07-13T00:56:35;20.30;1.00
7167;DHT22;3625;51.762;14.320;2023-07-13T00:59:07;20.20;1.00
7167;DHT22;3625;51.762;14.320;2023-07-13T01:01:40;20.10;99.90
7167;DHT22;3625;51.762;14.320;2023-07-13T01:04:09;20.00;99.90
7167;DHT22;3625;51.762;14.320;2023-07-13T01:06:40;19.90;99.90
7167;DHT22;3625;51.762;14.320;2023-07-13T01:09:13;19.80;99.90
7167;DHT22;3625;51.762;14.320;2023-07-13T01:11:43;19.80;99.90
7167;DHT22;3625;51.762;14.320;2023-07-13T01:14:12;19.80;70.40
7167;DHT22;3625;51.762;14.320;2023-07-13T01:16:44;19.80;96.30
7167;DHT22;3625;51.762;14.320;2023-07-13T01:19:24;19.80;84.40
7167;DHT22;3625;51.762;14.320;2023-07-13T01:22:06;19.70;1.00
7167;DHT22;3625;51.762;14.320;2023-07-13T01:24:40;19.70;1.00
7167;DHT22;3625;51.762;14.320;2023-07-13T01:27:12;19.70;1.00
7167;DHT22;3625;51.762;14.320;2023-07-13T01:29:46;19.70;1.00
7167;DHT22;3625;51.762;14.320;2023-07-13T01:32:17;19.70;1.00
7167;DHT22;3625;51.762;14.320;2023-07-13T01:34:50;19.70;1.00
7167;DHT22;3625;51.762;14.320;2023-07-13T01:37:24;19.70;1.00
7167;DHT22;3625;51.762;14.320;2023-07-13T01:39:53;19.70;1.00
7167;DHT22;3625;51.762;14.320;2023-07-13T01:42:22;19.60;1.00
7167;DHT22;3625;51.762;14.320;2023-07-13T01:44:50;19.60;1.00
7167;DHT22;3625;51.762;14.320;2023-07-13T01:47:19;19.60;1.00
7167;DHT22;3625;51.762;14.320;2023-07-13T01:49:48;19.60;1.00
7167;DHT22;3625;51.762;14.320;2023-07-13T01:52:18;19.60;1.00
7167;DHT22;3625;51.762;14.320;2023-07-13T01:54:48;19.20;1.00
7167;DHT22;3625;51.762;14.320;2023-07-13T01:57:17;19.50;1.00
7167;DHT22;3625;51.762;14.320;2023-07-13T01:59:46;19.50;1.00
7167;DHT22;3625;51.762;14.320;2023-07-13T02:02:14;19.60;1.00
7167;DHT22;3625;51.762;14.320;2023-07-13T02:04:43;19.60;2.10
7167;DHT22;3625;51.762;14.320;2023-07-13T02:07:11;19.60;1.00
7167;DHT22;3625;51.762;14.320;2023-07-13T02:09:41;19.60;34.90
7167;DHT22;3625;51.762;14.320;2023-07-13T02:12:11;19.60;58.50
7167;DHT22;3625;51.762;14.320;2023-07-13T02:14:40;19.60;98.10
7167;DHT22;3625;51.762;14.320;2023-07-13T02:17:10;19.60;99.90
7167;DHT22;3625;51.762;14.320;2023-07-13T02:19:39;19.60;99.90
7167;DHT22;3625;51.762;14.320;2023-07-13T02:22:07;19.50;99.90
7167;DHT22;3625;51.762;14.320;2023-07-13T02:24:36;19.50;99.90
7167;DHT22;3625;51.762;14.320;2023-07-13T02:27:05;19.50;99.90
7167;DHT22;3625;51.762;14.320;2023-07-13T02:29:35;19.50;99.90
7167;DHT22;3625;51.762;14.320;2023-07-13T02:32:05;19.40;99.90
7167;DHT22;3625;51.762;14.320;2023-07-13T02:34:34;19.30;1.00
7167;DHT22;3625;51.762;14.320;2023-07-13T02:37:04;19.30;1.00
7167;DHT22;3625;51.762;14.320;2023-07-13T02:39:33;19.30;1.00
7167;DHT22;3625;51.762;14.320;2023-07-13T02:42:03;19.20;1.00
7167;DHT22;3625;51.762;14.320;2023-07-13T02:44:32;19.10;1.00
7167;DHT22;3625;51.762;14.320;2023-07-13T02:47:02;19.10;1.00
7167;DHT22;3625;51.762;14.320;2023-07-13T02:49:31;19.10;1.00
7167;DHT22;3625;51.762;14.320;2023-07-13T02:51:59;19.10;1.00
7167;DHT22;3625;51.762;14.320;2023-07-13T02:54:28;19.10;1.00
7167;DHT22;3625;51.762;14.320;2023-07-13T02:56:56;19.10;1.00
7167;DHT22;3625;51.762;14.320;2023-07-13T02:59:25;18.90;1.00
7167;DHT22;3625;51.762;14.320;2023-07-13T03:01:53;18.80;32.40
7167;DHT22;3625;51.762;14.320;2023-07-13T03:04:23;18.70;99.90
7167;DHT22;3625;51.762;14.320;2023-07-13T03:06:52;18.70;1.00
7167;DHT22;3625;51.762;14.320;2023-07-13T03:09:31;18.80;1.00
7167;DHT22;3625;51.762;14.320;2023-07-13T03:12:07;18.80;1.00
7167;DHT22;3625;51.762;14.320;2023-07-13T03:14:36;18.90;1.00
7167;DHT22;3625;51.762;14.320;2023-07-13T03:17:06;18.90;1.00
7167;DHT22;3625;51.762;14.320;2023-07-13T03:19:39;18.90;1.00
7167;DHT22;3625;51.762;14.320;2023-07-13T03:22:08;18.90;1.00
7167;DHT22;3625;51.762;14.320;2023-07-13T03:24:39;18.90;99.90
7167;DHT22;3625;51.762;14.320;2023-07-13T03:27:08;18.90;99.90
7167;DHT22;3625;51.762;14.320;2023-07-13T03:29:39;18.80;99.90
7167;DHT22;3625;51.762;14.320;2023-07-13T03:32:09;18.80;1.00
7167;DHT22;3625;51.762;14.320;2023-07-13T03:34:39;18.70;1.00
7167;DHT22;3625;51.762;14.320;2023-07-13T03:37:08;18.60;1.00
7167;DHT22;3625;51.762;14.320;2023-07-13T03:39:37;18.60;39.00
7167;DHT22;3625;51.762;14.320;2023-07-13T03:42:06;18.70;1.00
7167;DHT22;3625;51.762;14.320;2023-07-13T03:44:35;18.80;99.90
7167;DHT22;3625;51.762;14.320;2023-07-13T03:47:04;18.80;56.70
7167;DHT22;3625;51.762;14.320;2023-07-13T03:49:35;18.80;1.00
7167;DHT22;3625;51.762;14.320;2023-07-13T03:52:06;18.80;1.00
7167;DHT22;3625;51.762;14.320;2023-07-13T03:54:35;18.80;51.60
7167;DHT22;3625;51.762;14.320;2023-07-13T03:57:05;18.80;1.00
7167;DHT22;3625;51.762;14.320;2023-07-13T03:59:35;18.80;1.00
7167;DHT22;3625;51.762;14.320;2023-07-13T04:02:04;18.80;1.00
7167;DHT22;3625;51.762;14.320;2023-07-13T04:04:34;18.90;1.00
7167;DHT22;3625;51.762;14.320;2023-07-13T04:07:02;19.00;99.90
7167;DHT22;3625;51.762;14.320;2023-07-13T04:09:34;19.00;99.90
7167;DHT22;3625;51.762;14.320;2023-07-13T04:12:03;19.00;99.90
7167;DHT22;3625;51.762;14.320;2023-07-13T04:14:33;19.10;1.00
7167;DHT22;3625;51.762;14.320;2023-07-13T04:17:01;19.00;1.00
7167;DHT22;3625;51.762;14.320;2023-07-13T04:19:30;19.10;1.00
7167;DHT22;3625;51.762;14.320;2023-07-13T04:21:59;19.10;1.00
7167;DHT22;3625;51.762;14.320;2023-07-13T04:24:29;19.10;1.00
7167;DHT22;3625;51.762;14.320;2023-07-13T04:26:57;19.10;1.00
7167;DHT22;3625;51.762;14.320;2023-07-13T04:29:26;19.20;1.00
7167;DHT22;3625;51.762;14.320;2023-07-13T04:31:55;19.30;1.00
7167;DHT22;3625;51.762;14.320;2023-07-13T04:34:23;19.40;99.90
7167;DHT22;3625;51.762;14.320;2023-07-13T04:36:52;19.40;99.90
7167;DHT22;3625;51.762;14.320;2023-07-13T04:39:21;19.30;99.90
7167;DHT22;3625;51.762;14.320;2023-07-13T04:41:53;19.30;99.90
7167;DHT22;3625;51.762;14.320;2023-07-13T04:44:22;19.40;99.90
7167;DHT22;3625;51.762;14.320;2023-07-13T04:46:51;19.50;3.60
7167;DHT22;3625;51.762;14.320;2023-07-13T04:49:20;19.70;11.60
7167;DHT22;3625;51.762;14.320;2023-07-13T04:51:49;19.70;1.00
7167;DHT22;3625;51.762;14.320;2023-07-13T04:54:17;19.70;1.00
7167;DHT22;3625;51.762;14.320;2023-07-13T04:56:46;19.70;1.00
7167;DHT22;3625;51.762;14.320;2023-07-13T04:59:16;19.60;1.00
7167;DHT22;3625;51.762;14.320;2023-07-13T05:01:44;19.50;99.90
7167;DHT22;3625;51.762;14.320;2023-07-13T05:04:14;19.30;1.00
7167;DHT22;3625;51.762;14.320;2023-07-13T05:06:42;19.10;99.90
7167;DHT22;3625;51.762;14.320;2023-07-13T05:09:11;19.20;1.00
7167;DHT22;3625;51.762;14.320;2023-07-13T05:11:40;19.30;1.00
7167;DHT22;3625;51.762;14.320;2023-07-13T05:14:09;19.40;98.60
7167;DHT22;3625;51.762;14.320;2023-07-13T05:16:39;19.50;38.30
7167;DHT22;3625;51.762;14.320;2023-07-13T05:19:08;19.60;99.90
7167;DHT22;3625;51.762;14.320;2023-07-13T05:21:38;19.50;1.00
7167;DHT22;3625;51.762;14.320;2023-07-13T05:24:08;19.40;99.90
7167;DHT22;3625;51.762;14.320;2023-07-13T05:26:50;19.40;1.00
7167;DHT22;3625;51.762;14.320;2023-07-13T05:29:27;19.30;1.00
7167;DHT22;3625;51.762;14.320;2023-07-13T05:31:57;19.30;1.00
7167;DHT22;3625;51.762;14.320;2023-07-13T05:34:26;19.10;1.00
7167;DHT22;3625;51.762;14.320;2023-07-13T05:36:57;19.10;1.00
7167;DHT22;3625;51.762;14.320;2023-07-13T05:39:25;19.30;99.90
7167;DHT22;3625;51.762;14.320;2023-07-13T05:41:54;19.40;1.00
7167;DHT22;3625;51.762;14.320;2023-07-13T05:44:23;19.60;99.90
7167;DHT22;3625;51.762;14.320;2023-07-13T05:46:51;19.80;1.00
7167;DHT22;3625;51.762;14.320;2023-07-13T05:49:23;20.40;1.00
7167;DHT22;3625;51.762;14.320;2023-07-13T05:51:52;20.40;1.00
7167;DHT22;3625;51.762;14.320;2023-07-13T05:54:20;20.70;1.00
7167;DHT22;3625;51.762;14.320;2023-07-13T05:56:49;20.90;1.00
7167;DHT22;3625;51.762;14.320;2023-07-13T05:59:18;20.80;1.00
7167;DHT22;3625;51.762;14.320;2023-07-13T06:01:46;20.60;1.00
7167;DHT22;3625;51.762;14.320;2023-07-13T06:04:15;20.60;1.70
7167;DHT22;3625;51.762;14.320;2023-07-13T06:06:45;20.80;15.70
7167;DHT22;3625;51.762;14.320;2023-07-13T06:09:17;20.90;1.00
7167;DHT22;3625;51.762;14.320;2023-07-13T06:11:46;21.20;1.00
7167;DHT22;3625;51.762;14.320;2023-07-13T06:14:14;21.40;1.00
7167;DHT22;3625;51.762;14.320;2023-07-13T06:16:43;21.50;1.00
7167;DHT22;3625;51.762;14.320;2023-07-13T06:19:14;21.40;99.90
7167;DHT22;3625;51.762;14.320;2023-07-13T06:21:45;21.40;99.90
7167;DHT22;3625;51.762;14.320;2023-07-13T06:26:45;21.00;99.90
7167;DHT22;3625;51.762;14.320;2023-07-13T06:29:14;21.00;99.90
7167;DHT22;3625;51.762;14.320;2023-07-13T06:31:44;20.80;99.90
7167;DHT22;3625;51.762;14.320;2023-07-13T06:36:50;23.60;1.00
7167;DHT22;3625;51.762;14.320;2023-07-13T06:41:50;20.50;1.00
7167;DHT22;3625;51.762;14.320;2023-07-13T06:44:19;20.50;1.00
7167;DHT22;3625;51.762;14.320;2023-07-13T06:46:48;20.50;99.90
7167;DHT22;3625;51.762;14.320;2023-07-13T06:49:21;20.60;1.00
7167;DHT22;3625;51.762;14.320;2023-07-13T06:51:54;21.20;39.90
7167;DHT22;3625;51.762;14.320;2023-07-13T06:54:23;20.60;99.90
7167;DHT22;3625;51.762;14.320;2023-07-13T06:59:27;20.60;99.90
7167;DHT22;3625;51.762;14.320;2023-07-13T07:01:56;20.60;99.90
7167;DHT22;3625;51.762;14.320;2023-07-13T07:04:25;20.60;99.90
7167;DHT22;3625;51.762;14.320;2023-07-13T07:06:55;20.70;99.90
7167;DHT22;3625;51.762;14.320;2023-07-13T07:09:26;20.70;1.00
7167;DHT22;3625;51.762;14.320;2023-07-13T07:11:57;20.80;1.00
7167;DHT22;3625;51.762;14.320;2023-07-13T07:14:31;21.00;1.00
7167;DHT22;3625;51.762;14.320;2023-07-13T07:17:01;21.00;1.00
7167;DHT22;3625;51.762;14.320;2023-07-13T07:19:31;21.10;1.00
7167;DHT22;3625;51.762;14.320;2023-07-13T07:22:01;21.20;1.00
7167;DHT22;3625;51.762;14.320;2023-07-13T07:24:30;21.30;99.90
7167;DHT22;3625;51.762;14.320;2023-07-13T07:26:59;21.30;16.60
7167;DHT22;3625;51.762;14.320;2023-07-13T07:29:31;21.50;1.00
7167;DHT22;3625;51.762;14.320;2023-07-13T07:32:03;21.70;1.00
7167;DHT22;3625;51.762;14.320;2023-07-13T07:34:52;21.60;1.00
7167;DHT22;3625;51.762;14.320;2023-07-13T07:37:22;21.80;1.00
7167;DHT22;3625;51.762;14.320;2023-07-13T07:40:11;21.90;1.00
7167;DHT22;3625;51.762;14.320;2023-07-13T07:42:42;22.00;1.00
7167;DHT22;3625;51.762;14.320;2023-07-13T07:45:11;22.10;99.90
7167;DHT22;3625;51.762;14.320;2023-07-13T07:50:10;22.20;1.00
7167;DHT22;3625;51.762;14.320;2023-07-13T07:52:40;22.30;1.00
7167;DHT22;3625;51.762;14.320;2023-07-13T07:55:10;23.30;1.00
7167;DHT22;3625;51.762;14.320;2023-07-13T07:57:41;23.40;1.00
7167;DHT22;3625;51.762;14.320;2023-07-13T08:00:14;24.60;1.00
7167;DHT22;3625;51.762;14.320;2023-07-13T08:02:47;25.70;1.00
7167;DHT22;3625;51.762;14.320;2023-07-13T08:05:19;25.80;1.00
7167;DHT22;3625;51.762;14.320;2023-07-13T08:08:07;25.70;1.00
7167;DHT22;3625;51.762;14.320;2023-07-13T08:10:35;25.50;1.00
7167;DHT22;3625;51.762;14.320;2023-07-13T08:13:04;25.40;1.00
7167;DHT22;3625;51.762;14.320;2023-07-13T08:15:37;25.60;1.00
7167;DHT22;3625;51.762;14.320;2023-07-13T08:18:05;25.50;1.00
7167;DHT22;3625;51.762;14.320;2023-07-13T08:20:37;25.70;1.00
7167;DHT22;3625;51.762;14.320;2023-07-13T08:23:09;25.60;1.00
7167;DHT22;3625;51.762;14.320;2023-07-13T08:25:38;25.20;1.00
7167;DHT22;3625;51.762;14.320;2023-07-13T08:28:06;25.30;1.00
7167;DHT22;3625;51.762;14.320;2023-07-13T08:30:35;25.20;1.00
7167;DHT22;3625;51.762;14.320;2023-07-13T08:33:04;24.90;1.00
7167;DHT22;3625;51.762;14.320;2023-07-13T08:35:33;24.70;1.00
7167;DHT22;3625;51.762;14.320;2023-07-13T08:38:01;24.50;1.00
7167;DHT22;3625;51.762;14.320;2023-07-13T08:40:34;24.40;1.00
7167;DHT22;3625;51.762;14.320;2023-07-13T08:43:03;24.40;1.00
7167;DHT22;3625;51.762;14.320;2023-07-13T08:45:45;24.80;1.00
7167;DHT22;3625;51.762;14.320;2023-07-13T08:48:20;25.50;1.00
7167;DHT22;3625;51.762;14.320;2023-07-13T08:50:58;26.30;1.00
7167;DHT22;3625;51.762;14.320;2023-07-13T08:53:36;26.80;99.90
7167;DHT22;3625;51.762;14.320;2023-07-13T08:56:18;27.10;99.90
7167;DHT22;3625;51.762;14.320;2023-07-13T08:58:53;27.10;99.90
7167;DHT22;3625;51.762;14.320;2023-07-13T09:01:31;26.90;99.90
7167;DHT22;3625;51.762;14.320;2023-07-13T09:04:14;26.60;99.90
7167;DHT22;3625;51.762;14.320;2023-07-13T09:06:58;26.80;99.90
7167;DHT22;3625;51.762;14.320;2023-07-13T09:09:42;26.70;99.90
7167;DHT22;3625;51.762;14.320;2023-07-13T09:12:22;26.70;99.90
7167;DHT22;3625;51.762;14.320;2023-07-13T09:14:57;27.10;99.90
7167;DHT22;3625;51.762;14.320;2023-07-13T09:17:29;27.70;99.90
7167;DHT22;3625;51.762;14.320;2023-07-13T09:20:10;27.70;99.90
7167;DHT22;3625;51.762;14.320;2023-07-13T09:22:46;27.00;99.90
7167;DHT22;3625;51.762;14.320;2023-07-13T09:25:24;27.00;99.90
7167;DHT22;3625;51.762;14.320;2023-07-13T09:28:02;26.70;99.90
7167;DHT22;3625;51.762;14.320;2023-07-13T09:30:46;26.70;99.90
7167;DHT22;3625;51.762;14.320;2023-07-13T09:33:21;26.40;99.90
7167;DHT22;3625;51.762;14.320;2023-07-13T09:35:51;26.00;99.90
7167;DHT22;3625;51.762;14.320;2023-07-13T09:38:22;25.80;99.90
7167;DHT22;3625;51.762;14.320;2023-07-13T09:41:14;25.50;99.90
7167;DHT22;3625;51.762;14.320;2023-07-13T09:44:07;25.40;99.90
7167;DHT22;3625;51.762;14.320;2023-07-13T09:46:42;25.30;99.90
7167;DHT22;3625;51.762;14.320;2023-07-13T09:49:15;25.30;99.90
7167;DHT22;3625;51.762;14.320;2023-07-13T09:51:45;25.50;99.90
7167;DHT22;3625;51.762;14.320;2023-07-13T09:54:22;26.60;99.90
7167;DHT22;3625;51.762;14.320;2023-07-13T09:56:56;25.50;99.90
7167;DHT22;3625;51.762;14.320;2023-07-13T09:59:30;25.80;99.90
7167;DHT22;3625;51.762;14.320;2023-07-13T10:02:01;25.90;99.90
7167;DHT22;3625;51.762;14.320;2023-07-13T10:04:55;26.20;99.90
7167;DHT22;3625;51.762;14.320;2023-07-13T10:07:26;26.60;99.90
7167;DHT22;3625;51.762;14.320;2023-07-13T10:09:58;27.60;99.90
7167;DHT22;3625;51.762;14.320;2023-07-13T10:12:34;27.50;99.90
7167;DHT22;3625;51.762;14.320;2023-07-13T10:15:15;27.80;99.90
7167;DHT22;3625;51.762;14.320;2023-07-13T10:17:53;27.60;99.90
7167;DHT22;3625;51.762;14.320;2023-07-13T10:20:26;27.50;99.90
7167;DHT22;3625;51.762;14.320;2023-07-13T10:22:59;27.60;99.90
7167;DHT22;3625;51.762;14.320;2023-07-13T10:25:32;27.50;99.90
7167;DHT22;3625;51.762;14.320;2023-07-13T10:28:09;27.80;99.90
7167;DHT22;3625;51.762;14.320;2023-07-13T10:30:53;28.40;99.90
7167;DHT22;3625;51.762;14.320;2023-07-13T10:33:24;29.10;99.90
7167;DHT22;3625;51.762;14.320;2023-07-13T10:35:59;29.10;99.90
7167;DHT22;3625;51.762;14.320;2023-07-13T10:38:37;29.10;99.90
7167;DHT22;3625;51.762;14.320;2023-07-13T10:41:09;29.00;99.90
7167;DHT22;3625;51.762;14.320;2023-07-13T10:43:43;29.10;99.90
7167;DHT22;3625;51.762;14.320;2023-07-13T10:46:19;28.30;99.90
7167;DHT22;3625;51.762;14.320;2023-07-13T10:48:57;28.00;99.90
7167;DHT22;3625;51.762;14.320;2023-07-13T10:51:28;28.00;99.90
7167;DHT22;3625;51.762;14.320;2023-07-13T10:54:21;28.20;99.90
7167;DHT22;3625;51.762;14.320;2023-07-13T10:57:13;28.10;99.90
7167;DHT22;3625;51.762;14.320;2023-07-13T10:59:47;28.00;99.90
7167;DHT22;3625;51.762;14.320;2023-07-13T11:02:25;28.10;99.90
7167;DHT22;3625;51.762;14.320;2023-07-13T11:04:56;28.20;99.90
7167;DHT22;3625;51.762;14.320;2023-07-13T11:07:27;28.20;99.90
7167;DHT22;3625;51.762;14.320;2023-07-13T11:09:58;28.30;99.90
7167;DHT22;3625;51.762;14.320;2023-07-13T11:12:49;28.20;99.90
7167;DHT22;3625;51.762;14.320;2023-07-13T11:15:44;28.20;99.90
7167;DHT22;3625;51.762;14.320;2023-07-13T11:18:24;27.70;99.90
7167;DHT22;3625;51.762;14.320;2023-07-13T11:21:13;27.70;99.90
7167;DHT22;3625;51.762;14.320;2023-07-13T11:24:02;28.10;99.90
7167;DHT22;3625;51.762;14.320;2023-07-13T11:26:41;28.80;99.90
7167;DHT22;3625;51.762;14.320;2023-07-13T11:29:25;29.50;99.90
7167;DHT22;3625;51.762;14.320;2023-07-13T11:32:02;29.50;99.90
7167;DHT22;3625;51.762;14.320;2023-07-13T11:34:53;29.80;99.90
7167;DHT22;3625;51.762;14.320;2023-07-13T11:37:23;29.90;99.90
7167;DHT22;3625;51.762;14.320;2023-07-13T11:39:53;29.60;99.90
7167;DHT22;3625;51.762;14.320;2023-07-13T11:42:22;28.20;99.90
7167;DHT22;3625;51.762;14.320;2023-07-13T11:44:52;28.20;99.90
7167;DHT22;3625;51.762;14.320;2023-07-13T11:47:40;27.80;99.90
7167;DHT22;3625;51.762;14.320;2023-07-13T11:50:19;27.10;99.90
7167;DHT22;3625;51.762;14.320;2023-07-13T11:52:50;26.90;99.90
7167;DHT22;3625;51.762;14.320;2023-07-13T11:55:21;27.00;99.90
7167;DHT22;3625;51.762;14.320;2023-07-13T11:57:57;26.60;99.90
7167;DHT22;3625;51.762;14.320;2023-07-13T12:00:29;26.60;99.90
7167;DHT22;3625;51.762;14.320;2023-07-13T12:03:02;26.20;99.90
7167;DHT22;3625;51.762;14.320;2023-07-13T12:05:34;26.30;99.90
7167;DHT22;3625;51.762;14.320;2023-07-13T12:08:09;26.30;99.90
7167;DHT22;3625;51.762;14.320;2023-07-13T12:10:56;26.50;99.90
7167;DHT22;3625;51.762;14.320;2023-07-13T12:13:27;27.10;99.90
7167;DHT22;3625;51.762;14.320;2023-07-13T12:15:57;27.10;99.90
7167;DHT22;3625;51.762;14.320;2023-07-13T12:18:30;27.00;99.90
7167;DHT22;3625;51.762;14.320;2023-07-13T12:21:02;26.80;99.90
7167;DHT22;3625;51.762;14.320;2023-07-13T12:23:33;26.70;99.90
7167;DHT22;3625;51.762;14.320;2023-07-13T12:26:05;26.30;99.90
7167;DHT22;3625;51.762;14.320;2023-07-13T12:28:39;26.20;99.90
7167;DHT22;3625;51.762;14.320;2023-07-13T12:31:25;26.80;99.90
7167;DHT22;3625;51.762;14.320;2023-07-13T12:34:01;27.00;99.90
7167;DHT22;3625;51.762;14.320;2023-07-13T12:36:36;26.80;99.90
7167;DHT22;3625;51.762;14.320;2023-07-13T12:39:15;26.70;99.90
7167;DHT22;3625;51.762;14.320;2023-07-13T12:41:47;26.90;99.90
7167;DHT22;3625;51.762;14.320;2023-07-13T12:44:18;26.90;99.90
7167;DHT22;3625;51.762;14.320;2023-07-13T12:46:56;26.90;99.90
7167;DHT22;3625;51.762;14.320;2023-07-13T12:49:29;26.90;99.90
7167;DHT22;3625;51.762;14.320;2023-07-13T12:52:10;27.00;99.90
7167;DHT22;3625;51.762;14.320;2023-07-13T12:54:52;27.20;99.90
7167;DHT22;3625;51.762;14.320;2023-07-13T12:57:34;27.30;99.90
7167;DHT22;3625;51.762;14.320;2023-07-13T13:00:21;27.50;99.90
7167;DHT22;3625;51.762;14.320;2023-07-13T13:02:54;27.70;99.90
7167;DHT22;3625;51.762;14.320;2023-07-13T13:08:15;26.80;99.90
7167;DHT22;3625;51.762;14.320;2023-07-13T13:10:44;26.50;99.90
7167;DHT22;3625;51.762;14.320;2023-07-13T13:13:13;26.60;99.90
7167;DHT22;3625;51.762;14.320;2023-07-13T13:15:42;26.80;99.90
7167;DHT22;3625;51.762;14.320;2023-07-13T13:18:16;26.80;99.90
7167;DHT22;3625;51.762;14.320;2023-07-13T13:20:46;27.40;99.90
7167;DHT22;3625;51.762;14.320;2023-07-13T13:23:20;27.50;99.90
7167;DHT22;3625;51.762;14.320;2023-07-13T13:25:50;27.60;99.90
7167;DHT22;3625;51.762;14.320;2023-07-13T13:28:20;28.00;99.90
7167;DHT22;3625;51.762;14.320;2023-07-13T13:30:51;28.90;99.90
7167;DHT22;3625;51.762;14.320;2023-07-13T13:33:21;28.20;99.90
7167;DHT22;3625;51.762;14.320;2023-07-13T13:35:50;27.70;99.90
7167;DHT22;3625;51.762;14.320;2023-07-13T13:38:24;27.70;99.90
7167;DHT22;3625;51.762;14.320;2023-07-13T13:40:54;27.70;99.90
7167;DHT22;3625;51.762;14.320;2023-07-13T13:43:24;27.70;99.90
7167;DHT22;3625;51.762;14.320;2023-07-13T13:45:57;27.80;99.90
7167;DHT22;3625;51.762;14.320;2023-07-13T13:48:31;27.80;99.90
7167;DHT22;3625;51.762;14.320;2023-07-13T13:51:03;27.40;99.90
7167;DHT22;3625;51.762;14.320;2023-07-13T13:53:42;27.10;99.90
7167;DHT22;3625;51.762;14.320;2023-07-13T13:56:12;26.90;99.90
7167;DHT22;3625;51.762;14.320;2023-07-13T14:01:13;26.80;99.90
7167;DHT22;3625;51.762;14.320;2023-07-13T14:03:45;27.00;99.90
7167;DHT22;3625;51.762;14.320;2023-07-13T14:06:16;27.10;99.90
7167;DHT22;3625;51.762;14.320;2023-07-13T14:08:46;27.50;99.90
7167;DHT22;3625;51.762;14.320;2023-07-13T14:11:19;27.90;99.90
7167;DHT22;3625;51.762;14.320;2023-07-13T14:13:51;27.60;99.90
7167;DHT22;3625;51.762;14.320;2023-07-13T14:16:26;28.20;99.90
7167;DHT22;3625;51.762;14.320;2023-07-13T14:18:59;27.30;99.90
7167;DHT22;3625;51.762;14.320;2023-07-13T14:21:29;27.30;99.90
7167;DHT22;3625;51.762;14.320;2023-07-13T14:24:00;27.20;99.90
7167;DHT22;3625;51.762;14.320;2023-07-13T14:26:32;27.30;99.90
7167;DHT22;3625;51.762;14.320;2023-07-13T14:29:11;27.30;99.90
7167;DHT22;3625;51.762;14.320;2023-07-13T14:31:42;27.40;99.90
7167;DHT22;3625;51.762;14.320;2023-07-13T14:34:12;27.40;99.90
7167;DHT22;3625;51.762;14.320;2023-07-13T14:36:43;27.70;99.90
7167;DHT22;3625;51.762;14.320;2023-07-13T14:39:17;27.90;99.90
7167;DHT22;3625;51.762;14.320;2023-07-13T14:41:49;28.30;99.90
7167;DHT22;3625;51.762;14.320;2023-07-13T14:44:22;28.60;99.90
7167;DHT22;3625;51.762;14.320;2023-07-13T14:46:53;28.80;99.90
7167;DHT22;3625;51.762;14.320;2023-07-13T14:49:24;29.00;99.90
7167;DHT22;3625;51.762;14.320;2023-07-13T14:52:00;28.90;99.90
7167;DHT22;3625;51.762;14.320;2023-07-13T14:54:36;27.70;99.90
7167;DHT22;3625;51.762;14.320;2023-07-13T14:57:09;27.00;99.90
7167;DHT22;3625;51.762;14.320;2023-07-13T14:59:40;26.90;99.90
7167;DHT22;3625;51.762;14.320;2023-07-13T15:02:16;27.10;99.90
7167;DHT22;3625;51.762;14.320;2023-07-13T15:04:46;27.10;99.90
7167;DHT22;3625;51.762;14.320;2023-07-13T15:07:15;27.10;99.90
7167;DHT22;3625;51.762;14.320;2023-07-13T15:09:47;27.10;99.90
7167;DHT22;3625;51.762;14.320;2023-07-13T15:12:16;26.90;99.90
7167;DHT22;3625;51.762;14.320;2023-07-13T15:14:44;27.00;99.90
7167;DHT22;3625;51.762;14.320;2023-07-13T15:17:24;26.90;99.90
7167;DHT22;3625;51.762;14.320;2023-07-13T15:19:57;27.30;99.90
7167;DHT22;3625;51.762;14.320;2023-07-13T15:22:27;27.30;99.90
7167;DHT22;3625;51.762;14.320;2023-07-13T15:24:57;27.30;99.90
7167;DHT22;3625;51.762;14.320;2023-07-13T15:27:31;27.20;99.90
7167;DHT22;3625;51.762;14.320;2023-07-13T15:29:59;27.30;99.90
7167;DHT22;3625;51.762;14.320;2023-07-13T15:32:28;27.70;99.90
7167;DHT22;3625;51.762;14.320;2023-07-13T15:34:57;27.80;99.90
7167;DHT22;3625;51.762;14.320;2023-07-13T15:39:56;27.30;99.90
7167;DHT22;3625;51.762;14.320;2023-07-13T15:42:25;27.30;99.90
7167;DHT22;3625;51.762;14.320;2023-07-13T15:44:53;27.50;99.90
7167;DHT22;3625;51.762;14.320;2023-07-13T15:47:22;27.70;99.90
7167;DHT22;3625;51.762;14.320;2023-07-13T15:49:51;27.80;99.90
7167;DHT22;3625;51.762;14.320;2023-07-13T15:52:23;27.70;99.90
7167;DHT22;3625;51.762;14.320;2023-07-13T15:54:52;27.20;99.90
7167;DHT22;3625;51.762;14.320;2023-07-13T15:57:22;26.40;99.90
7167;DHT22;3625;51.762;14.320;2023-07-13T16:02:20;26.70;99.90
7167;DHT22;3625;51.762;14.320;2023-07-13T16:04:49;26.90;99.90
7167;DHT22;3625;51.762;14.320;2023-07-13T16:07:18;27.00;99.90
7167;DHT22;3625;51.762;14.320;2023-07-13T16:09:49;26.90;99.90
7167;DHT22;3625;51.762;14.320;2023-07-13T16:12:20;26.80;99.90
7167;DHT22;3625;51.762;14.320;2023-07-13T16:14:50;26.80;99.90
7167;DHT22;3625;51.762;14.320;2023-07-13T16:17:18;26.90;99.90
7167;DHT22;3625;51.762;14.320;2023-07-13T16:19:47;26.80;99.90
7167;DHT22;3625;51.762;14.320;2023-07-13T16:22:18;27.00;99.90
7167;DHT22;3625;51.762;14.320;2023-07-13T16:24:49;26.90;99.90
7167;DHT22;3625;51.762;14.320;2023-07-13T16:27:24;26.80;99.90
7167;DHT22;3625;51.762;14.320;2023-07-13T16:29:55;26.80;99.90
7167;DHT22;3625;51.762;14.320;2023-07-13T16:32:26;27.80;99.90
7167;DHT22;3625;51.762;14.320;2023-07-13T16:34:55;27.00;99.90
7167;DHT22;3625;51.762;14.320;2023-07-13T16:37:27;27.10;99.90
7167;DHT22;3625;51.762;14.320;2023-07-13T16:39:58;27.20;99.90
7167;DHT22;3625;51.762;14.320;2023-07-13T16:42:37;27.30;99.90
7167;DHT22;3625;51.762;14.320;2023-07-13T16:45:11;27.10;99.90
7167;DHT22;3625;51.762;14.320;2023-07-13T16:47:40;27.00;99.90